sensor_id;sensor_type;location;lat;lon;timestamp;P1;durP1;ratioP1;P2;durP2;ratioP2
53010;SDS011;42803;55.762;38.084;2023-07-31T00:00:10;5.82;;;3.20;;
53010;SDS011;42803;55.762;38.084;2023-07-31T00:02:40;3.65;;;2.83;;
53010;SDS011;42803;55.762;38.084;2023-07-31T00:05:11;4.57;;;2.95;;
53010;SDS011;42803;55.762;38.084;2023-07-31T00:07:40;5.43;;;3.05;;
53010;SDS011;42803;55.762;38.084;2023-07-31T00:10:09;6.15;;;2.55;;
53010;SDS011;42803;55.762;38.084;2023-07-31T00:12:39;6.20;;;3.30;;
53010;SDS011;42803;55.762;38.084;2023-07-31T00:15:10;5.15;;;2.83;;
53010;SDS011;42803;55.762;38.084;2023-07-31T00:17:39;12.35;;;3.17;;
53010;SDS011;42803;55.762;38.084;2023-07-31T00:20:09;6.18;;;2.83;;
53010;SDS011;42803;55.762;38.084;2023-07-31T00:22:40;6.00;;;2.90;;
53010;SDS011;42803;55.762;38.084;2023-07-31T00:25:09;8.90;;;3.25;;
53010;SDS011;42803;55.762;38.084;2023-07-31T00:27:38;4.88;;;2.90;;
53010;SDS011;42803;55.762;38.084;2023-07-31T00:30:11;3.70;;;2.38;;
53010;SDS011;42803;55.762;38.084;2023-07-31T00:32:40;6.18;;;2.90;;
53010;SDS011;42803;55.762;38.084;2023-07-31T00:35:11;7.50;;;2.70;;
53010;SDS011;42803;55.762;38.084;2023-07-31T00:37:40;4.20;;;2.78;;
53010;SDS011;42803;55.762;38.084;2023-07-31T00:40:12;7.22;;;3.00;;
53010;SDS011;42803;55.762;38.084;2023-07-31T00:42:42;4.38;;;2.83;;
53010;SDS011;42803;55.762;38.084;2023-07-31T00:45:11;7.88;;;3.22;;
53010;SDS011;42803;55.762;38.084;2023-07-31T00:47:40;6.63;;;2.78;;
53010;SDS011;42803;55.762;38.084;2023-07-31T00:50:11;11.82;;;3.28;;
53010;SDS011;42803;55.762;38.084;2023-07-31T00:52:42;4.57;;;2.72;;
53010;SDS011;42803;55.762;38.084;2023-07-31T00:55:11;7.10;;;3.05;;
53010;SDS011;42803;55.762;38.084;2023-07-31T00:57:40;4.50;;;2.95;;
53010;SDS011;42803;55.762;38.084;2023-07-31T01:00:11;5.38;;;2.95;;
53010;SDS011;42803;55.762;38.084;2023-07-31T01:02:40;5.45;;;2.50;;
53010;SDS011;42803;55.762;38.084;2023-07-31T01:05:12;8.00;;;3.25;;
53010;SDS011;42803;55.762;38.084;2023-07-31T01:07:42;5.40;;;2.65;;
53010;SDS011;42803;55.762;38.084;2023-07-31T01:10:16;5.18;;;2.75;;
53010;SDS011;42803;55.762;38.084;2023-07-31T01:12:49;4.88;;;2.40;;
53010;SDS011;42803;55.762;38.084;2023-07-31T01:15:20;6.50;;;3.22;;
53010;SDS011;42803;55.762;38.084;2023-07-31T01:17:49;8.40;;;3.10;;
53010;SDS011;42803;55.762;38.084;2023-07-31T01:20:21;7.93;;;2.95;;
53010;SDS011;42803;55.762;38.084;2023-07-31T01:22:58;5.95;;;2.65;;
53010;SDS011;42803;55.762;38.084;2023-07-31T01:26:02;7.35;;;3.20;;
53010;SDS011;42803;55.762;38.084;2023-07-31T01:28:36;7.40;;;3.13;;
53010;SDS011;42803;55.762;38.084;2023-07-31T01:31:15;5.03;;;3.30;;
53010;SDS011;42803;55.762;38.084;2023-07-31T01:33:46;7.28;;;3.38;;
53010;SDS011;42803;55.762;38.084;2023-07-31T01:36:18;6.82;;;3.00;;
53010;SDS011;42803;55.762;38.084;2023-07-31T01:38:47;7.50;;;3.90;;
53010;SDS011;42803;55.762;38.084;2023-07-31T01:41:18;8.82;;;3.97;;
53010;SDS011;42803;55.762;38.084;2023-07-31T01:43:47;4.80;;;2.97;;
53010;SDS011;42803;55.762;38.084;2023-07-31T01:46:17;6.97;;;3.50;;
53010;SDS011;42803;55.762;38.084;2023-07-31T01:48:46;7.82;;;3.20;;
53010;SDS011;42803;55.762;38.084;2023-07-31T01:51:15;6.68;;;4.00;;
53010;SDS011;42803;55.762;38.084;2023-07-31T01:53:44;5.30;;;2.65;;
53010;SDS011;42803;55.762;38.084;2023-07-31T01:56:13;6.30;;;2.90;;
53010;SDS011;42803;55.762;38.084;2023-07-31T01:58:44;9.07;;;3.80;;
53010;SDS011;42803;55.762;38.084;2023-07-31T02:01:13;7.72;;;2.63;;
53010;SDS011;42803;55.762;38.084;2023-07-31T02:03:42;9.00;;;3.10;;
53010;SDS011;42803;55.762;38.084;2023-07-31T02:06:11;6.30;;;2.88;;
53010;SDS011;42803;55.762;38.084;2023-07-31T02:08:40;6.03;;;3.17;;
53010;SDS011;42803;55.762;38.084;2023-07-31T02:11:12;3.80;;;2.78;;
53010;SDS011;42803;55.762;38.084;2023-07-31T02:13:41;4.78;;;2.85;;
53010;SDS011;42803;55.762;38.084;2023-07-31T02:16:12;6.03;;;2.75;;
53010;SDS011;42803;55.762;38.084;2023-07-31T02:18:41;6.18;;;2.85;;
53010;SDS011;42803;55.762;38.084;2023-07-31T02:21:17;6.55;;;2.90;;
53010;SDS011;42803;55.762;38.084;2023-07-31T02:23:46;5.35;;;2.78;;
53010;SDS011;42803;55.762;38.084;2023-07-31T02:26:15;5.05;;;2.90;;
53010;SDS011;42803;55.762;38.084;2023-07-31T02:28:44;4.70;;;2.60;;
53010;SDS011;42803;55.762;38.084;2023-07-31T02:31:14;7.35;;;2.88;;
53010;SDS011;42803;55.762;38.084;2023-07-31T02:33:46;5.32;;;3.28;;
53010;SDS011;42803;55.762;38.084;2023-07-31T02:36:16;6.63;;;3.15;;
53010;SDS011;42803;55.762;38.084;2023-07-31T02:38:45;5.53;;;2.83;;
53010;SDS011;42803;55.762;38.084;2023-07-31T02:41:14;7.00;;;2.35;;
53010;SDS011;42803;55.762;38.084;2023-07-31T02:43:44;9.13;;;3.50;;
53010;SDS011;42803;55.762;38.084;2023-07-31T02:46:15;6.82;;;3.00;;
53010;SDS011;42803;55.762;38.084;2023-07-31T02:48:44;7.22;;;2.60;;
53010;SDS011;42803;55.762;38.084;2023-07-31T02:51:13;8.25;;;2.58;;
53010;SDS011;42803;55.762;38.084;2023-07-31T02:53:42;9.10;;;2.90;;
53010;SDS011;42803;55.762;38.084;2023-07-31T02:56:11;9.75;;;2.67;;
53010;SDS011;42803;55.762;38.084;2023-07-31T02:58:41;3.85;;;2.72;;
53010;SDS011;42803;55.762;38.084;2023-07-31T03:01:10;4.00;;;2.88;;
53010;SDS011;42803;55.762;38.084;2023-07-31T03:03:43;5.03;;;2.20;;
53010;SDS011;42803;55.762;38.084;2023-07-31T03:06:12;4.60;;;2.20;;
53010;SDS011;42803;55.762;38.084;2023-07-31T03:08:42;3.95;;;2.15;;
53010;SDS011;42803;55.762;38.084;2023-07-31T03:11:11;4.22;;;2.38;;
53010;SDS011;42803;55.762;38.084;2023-07-31T03:13:40;6.22;;;2.45;;
53010;SDS011;42803;55.762;38.084;2023-07-31T03:16:09;5.05;;;2.38;;
53010;SDS011;42803;55.762;38.084;2023-07-31T03:18:38;6.13;;;2.55;;
53010;SDS011;42803;55.762;38.084;2023-07-31T03:21:09;3.28;;;2.47;;
53010;SDS011;42803;55.762;38.084;2023-07-31T03:23:38;4.25;;;2.70;;
53010;SDS011;42803;55.762;38.084;2023-07-31T03:26:07;6.43;;;2.45;;
53010;SDS011;42803;55.762;38.084;2023-07-31T03:28:36;3.95;;;2.10;;
53010;SDS011;42803;55.762;38.084;2023-07-31T03:31:05;4.57;;;2.15;;
53010;SDS011;42803;55.762;38.084;2023-07-31T03:33:35;4.40;;;2.25;;
53010;SDS011;42803;55.762;38.084;2023-07-31T03:36:04;7.97;;;2.47;;
53010;SDS011;42803;55.762;38.084;2023-07-31T03:38:36;4.32;;;2.35;;
53010;SDS011;42803;55.762;38.084;2023-07-31T03:41:07;5.65;;;2.60;;
53010;SDS011;42803;55.762;38.084;2023-07-31T03:43:37;4.13;;;2.28;;
53010;SDS011;42803;55.762;38.084;2023-07-31T03:46:07;5.10;;;2.80;;
53010;SDS011;42803;55.762;38.084;2023-07-31T03:48:37;4.28;;;2.22;;
53010;SDS011;42803;55.762;38.084;2023-07-31T03:51:06;5.75;;;2.30;;
53010;SDS011;42803;55.762;38.084;2023-07-31T03:53:38;5.82;;;2.83;;
53010;SDS011;42803;55.762;38.084;2023-07-31T03:56:07;4.72;;;2.30;;
53010;SDS011;42803;55.762;38.084;2023-07-31T03:58:36;5.88;;;2.28;;
53010;SDS011;42803;55.762;38.084;2023-07-31T04:01:05;3.83;;;2.33;;
53010;SDS011;42803;55.762;38.084;2023-07-31T04:03:34;4.10;;;2.10;;
53010;SDS011;42803;55.762;38.084;2023-07-31T04:06:03;4.40;;;2.40;;
53010;SDS011;42803;55.762;38.084;2023-07-31T04:08:34;3.58;;;2.05;;
53010;SDS011;42803;55.762;38.084;2023-07-31T04:11:05;8.80;;;2.60;;
53010;SDS011;42803;55.762;38.084;2023-07-31T04:13:34;4.10;;;1.95;;
53010;SDS011;42803;55.762;38.084;2023-07-31T04:16:03;5.75;;;2.03;;
53010;SDS011;42803;55.762;38.084;2023-07-31T04:18:32;5.60;;;1.77;;
53010;SDS011;42803;55.762;38.084;2023-07-31T04:21:02;3.83;;;2.13;;
53010;SDS011;42803;55.762;38.084;2023-07-31T04:23:31;4.25;;;2.05;;
53010;SDS011;42803;55.762;38.084;2023-07-31T04:26:00;5.47;;;2.05;;
53010;SDS011;42803;55.762;38.084;2023-07-31T04:28:31;4.97;;;1.77;;
53010;SDS011;42803;55.762;38.084;2023-07-31T04:31:00;3.05;;;2.00;;
53010;SDS011;42803;55.762;38.084;2023-07-31T04:33:29;5.80;;;1.88;;
53010;SDS011;42803;55.762;38.084;2023-07-31T04:35:59;3.13;;;2.10;;
53010;SDS011;42803;55.762;38.084;2023-07-31T04:38:28;3.95;;;2.13;;
53010;SDS011;42803;55.762;38.084;2023-07-31T04:40:57;4.28;;;2.00;;
53010;SDS011;42803;55.762;38.084;2023-07-31T04:43:26;3.13;;;2.00;;
53010;SDS011;42803;55.762;38.084;2023-07-31T04:45:57;2.78;;;1.73;;
53010;SDS011;42803;55.762;38.084;2023-07-31T04:48:26;2.85;;;1.88;;
53010;SDS011;42803;55.762;38.084;2023-07-31T04:50:55;3.38;;;1.83;;
53010;SDS011;42803;55.762;38.084;2023-07-31T04:53:24;4.13;;;1.83;;
53010;SDS011;42803;55.762;38.084;2023-07-31T04:55:53;3.22;;;2.08;;
53010;SDS011;42803;55.762;38.084;2023-07-31T04:58:22;2.10;;;1.75;;
53010;SDS011;42803;55.762;38.084;2023-07-31T05:00:51;2.17;;;1.60;;
53010;SDS011;42803;55.762;38.084;2023-07-31T05:03:22;2.50;;;1.65;;
53010;SDS011;42803;55.762;38.084;2023-07-31T05:05:51;4.32;;;1.80;;
53010;SDS011;42803;55.762;38.084;2023-07-31T05:08:20;2.97;;;1.40;;
53010;SDS011;42803;55.762;38.084;2023-07-31T05:10:49;1.60;;;1.40;;
53010;SDS011;42803;55.762;38.084;2023-07-31T05:13:18;3.42;;;1.50;;
53010;SDS011;42803;55.762;38.084;2023-07-31T05:15:48;3.03;;;1.55;;
53010;SDS011;42803;55.762;38.084;2023-07-31T05:18:17;2.25;;;1.65;;
53010;SDS011;42803;55.762;38.084;2023-07-31T05:20:48;4.80;;;1.70;;
53010;SDS011;42803;55.762;38.084;2023-07-31T05:23:17;2.80;;;1.52;;
53010;SDS011;42803;55.762;38.084;2023-07-31T05:25:46;2.28;;;1.80;;
53010;SDS011;42803;55.762;38.084;2023-07-31T05:28:15;2.65;;;1.63;;
53010;SDS011;42803;55.762;38.084;2023-07-31T05:30:45;4.40;;;1.65;;
53010;SDS011;42803;55.762;38.084;2023-07-31T05:33:14;2.40;;;1.70;;
53010;SDS011;42803;55.762;38.084;2023-07-31T05:35:43;3.25;;;1.63;;
53010;SDS011;42803;55.762;38.084;2023-07-31T05:38:14;3.03;;;1.60;;
53010;SDS011;42803;55.762;38.084;2023-07-31T05:40:43;2.80;;;1.48;;
53010;SDS011;42803;55.762;38.084;2023-07-31T05:43:12;2.60;;;1.70;;
53010;SDS011;42803;55.762;38.084;2023-07-31T05:45:41;3.83;;;1.70;;
53010;SDS011;42803;55.762;38.084;2023-07-31T05:48:11;2.10;;;1.70;;
53010;SDS011;42803;55.762;38.084;2023-07-31T05:50:40;3.95;;;1.50;;
53010;SDS011;42803;55.762;38.084;2023-07-31T05:53:09;2.70;;;1.52;;
53010;SDS011;42803;55.762;38.084;2023-07-31T05:55:40;2.97;;;1.38;;
53010;SDS011;42803;55.762;38.084;2023-07-31T05:58:09;1.90;;;1.40;;
53010;SDS011;42803;55.762;38.084;2023-07-31T06:00:38;3.70;;;1.70;;
53010;SDS011;42803;55.762;38.084;2023-07-31T06:03:08;4.15;;;1.67;;
53010;SDS011;42803;55.762;38.084;2023-07-31T06:05:37;3.53;;;1.60;;
53010;SDS011;42803;55.762;38.084;2023-07-31T06:08:06;1.80;;;1.30;;
53010;SDS011;42803;55.762;38.084;2023-07-31T06:10:35;3.92;;;1.48;;
53010;SDS011;42803;55.762;38.084;2023-07-31T06:13:06;2.47;;;1.40;;
53010;SDS011;42803;55.762;38.084;2023-07-31T06:15:35;3.28;;;1.42;;
53010;SDS011;42803;55.762;38.084;2023-07-31T06:18:04;3.28;;;1.50;;
53010;SDS011;42803;55.762;38.084;2023-07-31T06:20:35;3.38;;;1.33;;
53010;SDS011;42803;55.762;38.084;2023-07-31T06:23:04;2.10;;;1.42;;
53010;SDS011;42803;55.762;38.084;2023-07-31T06:25:33;4.40;;;1.42;;
53010;SDS011;42803;55.762;38.084;2023-07-31T06:28:02;4.15;;;2.22;;
53010;SDS011;42803;55.762;38.084;2023-07-31T06:30:33;3.75;;;1.33;;
53010;SDS011;42803;55.762;38.084;2023-07-31T06:33:02;4.45;;;1.70;;
53010;SDS011;42803;55.762;38.084;2023-07-31T06:35:31;4.72;;;1.83;;
53010;SDS011;42803;55.762;38.084;2023-07-31T06:38:00;4.85;;;1.65;;
53010;SDS011;42803;55.762;38.084;2023-07-31T06:40:30;3.22;;;1.60;;
53010;SDS011;42803;55.762;38.084;2023-07-31T06:42:59;2.60;;;1.73;;
53010;SDS011;42803;55.762;38.084;2023-07-31T06:48:05;3.35;;;1.45;;
53010;SDS011;42803;55.762;38.084;2023-07-31T06:50:34;2.83;;;1.10;;
53010;SDS011;42803;55.762;38.084;2023-07-31T06:53:04;3.05;;;1.20;;
53010;SDS011;42803;55.762;38.084;2023-07-31T06:55:33;3.35;;;1.75;;
53010;SDS011;42803;55.762;38.084;2023-07-31T06:58:05;4.25;;;1.42;;
53010;SDS011;42803;55.762;38.084;2023-07-31T07:00:36;2.03;;;1.42;;
53010;SDS011;42803;55.762;38.084;2023-07-31T07:03:05;4.57;;;1.50;;
53010;SDS011;42803;55.762;38.084;2023-07-31T07:05:34;3.53;;;1.40;;
53010;SDS011;42803;55.762;38.084;2023-07-31T07:08:03;3.25;;;1.20;;
53010;SDS011;42803;55.762;38.084;2023-07-31T07:10:32;2.85;;;1.30;;
53010;SDS011;42803;55.762;38.084;2023-07-31T07:13:02;2.88;;;1.15;;
53010;SDS011;42803;55.762;38.084;2023-07-31T07:15:31;1.17;;;0.98;;
53010;SDS011;42803;55.762;38.084;2023-07-31T07:18:01;2.63;;;1.27;;
53010;SDS011;42803;55.762;38.084;2023-07-31T07:20:31;5.22;;;1.83;;
53010;SDS011;42803;55.762;38.084;2023-07-31T07:23:00;2.20;;;1.17;;
53010;SDS011;42803;55.762;38.084;2023-07-31T07:25:29;4.90;;;1.70;;
53010;SDS011;42803;55.762;38.084;2023-07-31T07:27:58;3.40;;;1.55;;
53010;SDS011;42803;55.762;38.084;2023-07-31T07:30:28;2.58;;;1.20;;
53010;SDS011;42803;55.762;38.084;2023-07-31T07:32:57;2.38;;;1.30;;
53010;SDS011;42803;55.762;38.084;2023-07-31T07:35:27;2.33;;;0.90;;
53010;SDS011;42803;55.762;38.084;2023-07-31T07:37:57;9.63;;;3.78;;
53010;SDS011;42803;55.762;38.084;2023-07-31T07:40:28;3.97;;;2.22;;
53010;SDS011;42803;55.762;38.084;2023-07-31T07:42:57;2.92;;;1.10;;
53010;SDS011;42803;55.762;38.084;2023-07-31T07:45:27;2.67;;;1.00;;
53010;SDS011;42803;55.762;38.084;2023-07-31T07:47:56;2.90;;;1.27;;
53010;SDS011;42803;55.762;38.084;2023-07-31T07:50:28;1.83;;;0.85;;
53010;SDS011;42803;55.762;38.084;2023-07-31T07:52:57;4.13;;;1.10;;
53010;SDS011;42803;55.762;38.084;2023-07-31T07:55:26;2.03;;;1.20;;
53010;SDS011;42803;55.762;38.084;2023-07-31T07:57:56;1.58;;;1.02;;
53010;SDS011;42803;55.762;38.084;2023-07-31T08:00:25;2.38;;;0.93;;
53010;SDS011;42803;55.762;38.084;2023-07-31T08:02:58;2.95;;;1.58;;
53010;SDS011;42803;55.762;38.084;2023-07-31T08:05:31;3.35;;;1.10;;
53010;SDS011;42803;55.762;38.084;2023-07-31T08:08:01;1.10;;;0.93;;
53010;SDS011;42803;55.762;38.084;2023-07-31T08:10:30;6.15;;;1.48;;
53010;SDS011;42803;55.762;38.084;2023-07-31T08:13:00;1.60;;;1.30;;
53010;SDS011;42803;55.762;38.084;2023-07-31T08:15:29;1.48;;;1.15;;
53010;SDS011;42803;55.762;38.084;2023-07-31T08:17:58;1.80;;;1.27;;
53010;SDS011;42803;55.762;38.084;2023-07-31T08:20:27;1.20;;;1.10;;
53010;SDS011;42803;55.762;38.084;2023-07-31T08:22:58;3.30;;;0.90;;
53010;SDS011;42803;55.762;38.084;2023-07-31T08:25:27;2.20;;;1.30;;
53010;SDS011;42803;55.762;38.084;2023-07-31T08:27:56;1.73;;;1.15;;
53010;SDS011;42803;55.762;38.084;2023-07-31T08:30:25;2.67;;;1.08;;
53010;SDS011;42803;55.762;38.084;2023-07-31T08:32:54;1.92;;;0.93;;
53010;SDS011;42803;55.762;38.084;2023-07-31T08:35:23;1.90;;;1.00;;
53010;SDS011;42803;55.762;38.084;2023-07-31T08:37:53;2.95;;;1.15;;
53010;SDS011;42803;55.762;38.084;2023-07-31T08:40:23;3.67;;;0.90;;
53010;SDS011;42803;55.762;38.084;2023-07-31T08:42:55;1.60;;;0.90;;
53010;SDS011;42803;55.762;38.084;2023-07-31T08:45:30;1.38;;;0.80;;
53010;SDS011;42803;55.762;38.084;2023-07-31T08:47:59;3.15;;;1.23;;
53010;SDS011;42803;55.762;38.084;2023-07-31T08:50:31;1.80;;;0.98;;
53010;SDS011;42803;55.762;38.084;2023-07-31T08:53:01;1.55;;;1.27;;
53010;SDS011;42803;55.762;38.084;2023-07-31T08:55:32;1.73;;;1.20;;
53010;SDS011;42803;55.762;38.084;2023-07-31T08:58:01;1.73;;;1.23;;
53010;SDS011;42803;55.762;38.084;2023-07-31T09:00:32;2.42;;;1.10;;
53010;SDS011;42803;55.762;38.084;2023-07-31T09:03:03;2.25;;;1.10;;
53010;SDS011;42803;55.762;38.084;2023-07-31T09:05:37;1.40;;;1.08;;
53010;SDS011;42803;55.762;38.084;2023-07-31T09:08:10;2.15;;;1.50;;
53010;SDS011;42803;55.762;38.084;2023-07-31T09:10:42;3.42;;;1.27;;
53010;SDS011;42803;55.762;38.084;2023-07-31T09:13:13;1.50;;;1.20;;
53010;SDS011;42803;55.762;38.084;2023-07-31T09:15:46;2.55;;;1.25;;
53010;SDS011;42803;55.762;38.084;2023-07-31T09:18:15;2.47;;;1.10;;
53010;SDS011;42803;55.762;38.084;2023-07-31T09:20:47;1.63;;;1.17;;
53010;SDS011;42803;55.762;38.084;2023-07-31T09:23:40;2.65;;;1.33;;
53010;SDS011;42803;55.762;38.084;2023-07-31T09:26:11;3.83;;;1.15;;
53010;SDS011;42803;55.762;38.084;2023-07-31T09:28:57;1.42;;;1.00;;
53010;SDS011;42803;55.762;38.084;2023-07-31T09:31:33;2.03;;;1.25;;
53010;SDS011;42803;55.762;38.084;2023-07-31T09:34:08;3.33;;;1.20;;
53010;SDS011;42803;55.762;38.084;2023-07-31T09:36:41;2.40;;;1.20;;
53010;SDS011;42803;55.762;38.084;2023-07-31T09:39:11;1.52;;;1.20;;
53010;SDS011;42803;55.762;38.084;2023-07-31T09:41:44;2.60;;;1.30;;
53010;SDS011;42803;55.762;38.084;2023-07-31T09:44:15;3.15;;;1.05;;
53010;SDS011;42803;55.762;38.084;2023-07-31T09:46:45;2.05;;;1.15;;
53010;SDS011;42803;55.762;38.084;2023-07-31T09:49:14;1.80;;;1.23;;
53010;SDS011;42803;55.762;38.084;2023-07-31T09:51:44;2.25;;;1.13;;
53010;SDS011;42803;55.762;38.084;2023-07-31T09:54:15;2.60;;;1.40;;
53010;SDS011;42803;55.762;38.084;2023-07-31T09:56:46;2.20;;;1.30;;
53010;SDS011;42803;55.762;38.084;2023-07-31T09:59:17;1.63;;;1.30;;
53010;SDS011;42803;55.762;38.084;2023-07-31T10:01:51;4.00;;;1.63;;
53010;SDS011;42803;55.762;38.084;2023-07-31T10:04:27;3.88;;;1.60;;
53010;SDS011;42803;55.762;38.084;2023-07-31T10:06:58;5.07;;;1.23;;
53010;SDS011;42803;55.762;38.084;2023-07-31T10:09:31;1.70;;;1.40;;
53010;SDS011;42803;55.762;38.084;2023-07-31T10:12:03;3.15;;;1.50;;
53010;SDS011;42803;55.762;38.084;2023-07-31T10:14:37;4.10;;;1.55;;
53010;SDS011;42803;55.762;38.084;2023-07-31T10:17:07;3.50;;;1.52;;
53010;SDS011;42803;55.762;38.084;2023-07-31T10:19:37;5.60;;;1.65;;
53010;SDS011;42803;55.762;38.084;2023-07-31T10:22:08;6.28;;;1.92;;
53010;SDS011;42803;55.762;38.084;2023-07-31T10:24:40;3.30;;;1.90;;
53010;SDS011;42803;55.762;38.084;2023-07-31T10:27:12;3.30;;;2.00;;
53010;SDS011;42803;55.762;38.084;2023-07-31T10:29:41;2.95;;;1.25;;
53010;SDS011;42803;55.762;38.084;2023-07-31T10:32:14;1.83;;;1.35;;
53010;SDS011;42803;55.762;38.084;2023-07-31T10:34:45;2.60;;;1.33;;
53010;SDS011;42803;55.762;38.084;2023-07-31T10:37:19;2.45;;;1.17;;
53010;SDS011;42803;55.762;38.084;2023-07-31T10:39:56;2.50;;;1.40;;
53010;SDS011;42803;55.762;38.084;2023-07-31T10:42:29;3.00;;;1.20;;
53010;SDS011;42803;55.762;38.084;2023-07-31T10:45:00;2.35;;;1.30;;
53010;SDS011;42803;55.762;38.084;2023-07-31T10:47:36;1.45;;;1.20;;
53010;SDS011;42803;55.762;38.084;2023-07-31T10:50:13;2.40;;;1.48;;
53010;SDS011;42803;55.762;38.084;2023-07-31T10:52:48;1.77;;;1.23;;
53010;SDS011;42803;55.762;38.084;2023-07-31T10:55:28;2.17;;;1.50;;
53010;SDS011;42803;55.762;38.084;2023-07-31T10:58:06;3.15;;;1.23;;
53010;SDS011;42803;55.762;38.084;2023-07-31T11:00:37;2.53;;;1.25;;
53010;SDS011;42803;55.762;38.084;2023-07-31T11:03:08;2.55;;;1.33;;
53010;SDS011;42803;55.762;38.084;2023-07-31T11:05:43;1.88;;;1.48;;
53010;SDS011;42803;55.762;38.084;2023-07-31T11:08:14;3.22;;;1.20;;
53010;SDS011;42803;55.762;38.084;2023-07-31T11:10:46;2.17;;;1.50;;
53010;SDS011;42803;55.762;38.084;2023-07-31T11:13:17;4.85;;;1.40;;
53010;SDS011;42803;55.762;38.084;2023-07-31T11:15:47;2.40;;;1.38;;
53010;SDS011;42803;55.762;38.084;2023-07-31T11:18:16;2.15;;;1.23;;
53010;SDS011;42803;55.762;38.084;2023-07-31T11:20:45;5.10;;;1.55;;
53010;SDS011;42803;55.762;38.084;2023-07-31T11:23:15;3.78;;;1.60;;
53010;SDS011;42803;55.762;38.084;2023-07-31T11:25:45;2.10;;;1.40;;
53010;SDS011;42803;55.762;38.084;2023-07-31T11:28:15;1.92;;;1.15;;
53010;SDS011;42803;55.762;38.084;2023-07-31T11:30:46;2.67;;;1.23;;
53010;SDS011;42803;55.762;38.084;2023-07-31T11:33:16;3.13;;;1.30;;
53010;SDS011;42803;55.762;38.084;2023-07-31T11:35:45;2.00;;;1.20;;
53010;SDS011;42803;55.762;38.084;2023-07-31T11:38:20;2.58;;;1.42;;
53010;SDS011;42803;55.762;38.084;2023-07-31T11:40:51;3.60;;;1.45;;
53010;SDS011;42803;55.762;38.084;2023-07-31T11:43:23;5.10;;;1.60;;
53010;SDS011;42803;55.762;38.084;2023-07-31T11:45:54;4.95;;;1.60;;
53010;SDS011;42803;55.762;38.084;2023-07-31T11:48:26;2.35;;;1.20;;
53010;SDS011;42803;55.762;38.084;2023-07-31T11:50:57;2.40;;;1.95;;
53010;SDS011;42803;55.762;38.084;2023-07-31T11:53:28;3.60;;;1.83;;
53010;SDS011;42803;55.762;38.084;2023-07-31T11:56:01;2.67;;;1.63;;
53010;SDS011;42803;55.762;38.084;2023-07-31T11:58:34;1.92;;;1.60;;
53010;SDS011;42803;55.762;38.084;2023-07-31T12:01:04;3.58;;;1.63;;
53010;SDS011;42803;55.762;38.084;2023-07-31T12:03:35;2.53;;;1.55;;
53010;SDS011;42803;55.762;38.084;2023-07-31T12:06:05;2.28;;;1.58;;
53010;SDS011;42803;55.762;38.084;2023-07-31T12:08:34;2.25;;;1.70;;
53010;SDS011;42803;55.762;38.084;2023-07-31T12:11:06;5.20;;;1.67;;
53010;SDS011;42803;55.762;38.084;2023-07-31T12:13:38;4.90;;;1.77;;
53010;SDS011;42803;55.762;38.084;2023-07-31T12:16:07;3.70;;;1.83;;
53010;SDS011;42803;55.762;38.084;2023-07-31T12:18:37;2.28;;;1.60;;
53010;SDS011;42803;55.762;38.084;2023-07-31T12:21:07;4.55;;;1.75;;
53010;SDS011;42803;55.762;38.084;2023-07-31T12:23:39;5.10;;;1.92;;
53010;SDS011;42803;55.762;38.084;2023-07-31T12:26:13;6.82;;;1.85;;
53010;SDS011;42803;55.762;38.084;2023-07-31T12:28:45;2.30;;;1.67;;
53010;SDS011;42803;55.762;38.084;2023-07-31T12:31:16;3.70;;;2.05;;
53010;SDS011;42803;55.762;38.084;2023-07-31T12:33:47;4.88;;;1.58;;
53010;SDS011;42803;55.762;38.084;2023-07-31T12:36:18;6.10;;;1.67;;
53010;SDS011;42803;55.762;38.084;2023-07-31T12:38:50;4.10;;;1.65;;
53010;SDS011;42803;55.762;38.084;2023-07-31T12:41:20;4.88;;;1.70;;
53010;SDS011;42803;55.762;38.084;2023-07-31T12:43:50;3.90;;;1.65;;
53010;SDS011;42803;55.762;38.084;2023-07-31T12:46:19;2.75;;;1.67;;
53010;SDS011;42803;55.762;38.084;2023-07-31T12:48:49;2.08;;;1.42;;
53010;SDS011;42803;55.762;38.084;2023-07-31T12:51:18;3.42;;;1.60;;
53010;SDS011;42803;55.762;38.084;2023-07-31T12:53:48;3.38;;;1.63;;
53010;SDS011;42803;55.762;38.084;2023-07-31T12:56:17;3.25;;;1.67;;
53010;SDS011;42803;55.762;38.084;2023-07-31T12:58:46;5.00;;;1.83;;
53010;SDS011;42803;55.762;38.084;2023-07-31T13:01:17;4.78;;;1.77;;
53010;SDS011;42803;55.762;38.084;2023-07-31T13:03:46;1.60;;;1.30;;
53010;SDS011;42803;55.762;38.084;2023-07-31T13:06:15;4.75;;;1.67;;
53010;SDS011;42803;55.762;38.084;2023-07-31T13:08:44;3.92;;;1.80;;
53010;SDS011;42803;55.762;38.084;2023-07-31T13:11:14;3.92;;;1.60;;
53010;SDS011;42803;55.762;38.084;2023-07-31T13:13:43;4.15;;;1.63;;
53010;SDS011;42803;55.762;38.084;2023-07-31T13:16:12;2.33;;;1.52;;
53010;SDS011;42803;55.762;38.084;2023-07-31T13:18:42;5.13;;;1.98;;
53010;SDS011;42803;55.762;38.084;2023-07-31T13:21:11;3.97;;;2.15;;
53010;SDS011;42803;55.762;38.084;2023-07-31T13:23:41;6.60;;;2.03;;
53010;SDS011;42803;55.762;38.084;2023-07-31T13:26:12;4.22;;;1.88;;
53010;SDS011;42803;55.762;38.084;2023-07-31T13:28:42;3.13;;;1.85;;
53010;SDS011;42803;55.762;38.084;2023-07-31T13:31:11;5.25;;;2.10;;
53010;SDS011;42803;55.762;38.084;2023-07-31T13:33:40;4.55;;;2.05;;
53010;SDS011;42803;55.762;38.084;2023-07-31T13:36:12;5.78;;;2.17;;
53010;SDS011;42803;55.762;38.084;2023-07-31T13:38:41;6.10;;;2.10;;
53010;SDS011;42803;55.762;38.084;2023-07-31T13:41:10;5.68;;;1.95;;
53010;SDS011;42803;55.762;38.084;2023-07-31T13:43:40;3.90;;;1.75;;
53010;SDS011;42803;55.762;38.084;2023-07-31T13:46:10;5.95;;;2.35;;
53010;SDS011;42803;55.762;38.084;2023-07-31T13:48:39;6.68;;;1.85;;
53010;SDS011;42803;55.762;38.084;2023-07-31T13:51:08;4.95;;;2.22;;
53010;SDS011;42803;55.762;38.084;2023-07-31T13:53:39;4.70;;;1.92;;
53010;SDS011;42803;55.762;38.084;2023-07-31T13:56:08;3.92;;;1.90;;
53010;SDS011;42803;55.762;38.084;2023-07-31T13:58:37;6.60;;;2.15;;
53010;SDS011;42803;55.762;38.084;2023-07-31T14:01:06;4.78;;;1.85;;
53010;SDS011;42803;55.762;38.084;2023-07-31T14:03:36;3.33;;;1.90;;
53010;SDS011;42803;55.762;38.084;2023-07-31T14:06:05;4.88;;;2.05;;
53010;SDS011;42803;55.762;38.084;2023-07-31T14:08:34;6.07;;;2.20;;
53010;SDS011;42803;55.762;38.084;2023-07-31T14:11:05;1.92;;;1.58;;
53010;SDS011;42803;55.762;38.084;2023-07-31T14:13:34;5.93;;;1.80;;
53010;SDS011;42803;55.762;38.084;2023-07-31T14:16:03;17.33;;;3.17;;
53010;SDS011;42803;55.762;38.084;2023-07-31T14:18:32;5.13;;;1.95;;
53010;SDS011;42803;55.762;38.084;2023-07-31T14:21:02;3.55;;;2.15;;
53010;SDS011;42803;55.762;38.084;2023-07-31T14:23:31;2.90;;;2.40;;
53010;SDS011;42803;55.762;38.084;2023-07-31T14:26:00;4.30;;;2.03;;
53010;SDS011;42803;55.762;38.084;2023-07-31T14:28:31;8.60;;;2.08;;
53010;SDS011;42803;55.762;38.084;2023-07-31T14:31:00;3.25;;;1.75;;
53010;SDS011;42803;55.762;38.084;2023-07-31T14:33:29;4.90;;;2.08;;
53010;SDS011;42803;55.762;38.084;2023-07-31T14:35:59;3.85;;;1.80;;
53010;SDS011;42803;55.762;38.084;2023-07-31T14:38:28;8.75;;;2.45;;
53010;SDS011;42803;55.762;38.084;2023-07-31T14:40:57;3.83;;;1.85;;
53010;SDS011;42803;55.762;38.084;2023-07-31T14:43:26;7.97;;;1.65;;
53010;SDS011;42803;55.762;38.084;2023-07-31T14:45:57;3.50;;;1.90;;
53010;SDS011;42803;55.762;38.084;2023-07-31T14:48:27;4.53;;;2.03;;
53010;SDS011;42803;55.762;38.084;2023-07-31T14:50:56;6.22;;;1.85;;
53010;SDS011;42803;55.762;38.084;2023-07-31T14:53:25;5.25;;;2.22;;